• Join FlightAware (Why Join?)
  • Login
  • US Flag 
12:49AM EDT


 

Airport Tracker/Info


-or-


 

Live Flight TrackerFlight Track Log ✈ N4608W ✈ 13-Dec-2013 ✈ KLUK - KMRT

Flight Track Log - Related Links

Times and Time Zones

All times are in EST time to prevent confusion due to time zone crossing. See the N4608W flight status page for this flight to view local times or setup timezone preferences in your user account.

Time Position Orientation Groundspeed Altitude Reporting Facility
EST Latitude Longitude Course Direction KTS MPH feet Rate Location/Type
03:57PM 39.1000 -84.4000 37° Northeast 105 121 1,700  Level Cincinnati TRACON
03:58PM 39.1167 -84.3667 57° Northeast 117 135 2,400 360 Climbing Cincinnati TRACON
03:59PM 39.1500 -84.3333 38° Northeast 153 176 2,500  Climbing Cincinnati TRACON
04:00PM 39.1833 -84.3167 21° North 158 182 2,400 -60 Descending Cincinnati TRACON
04:01PM 39.2333 -84.2833 27° Northeast 157 181 2,400 360 Level Cincinnati TRACON
04:01PM 39.2475 -84.2625 49° Northeast 112 129 3,100 600 Climbing Indianapolis Center
04:02PM 39.2865 -84.2473 37° Northeast  Level Estimated
04:02PM 39.2731 -84.2392 35° Northeast 124 143 3,400  Level Indianapolis Center
04:02PM 39.2783 -84.2356 28° Northeast 132 152 3,400 360 Level Indianapolis Center
04:04PM 39.3144 -84.2047 33° Northeast 143 165 3,900 600 Climbing Indianapolis Center
04:04PM 39.3267 -84.1892 45° Northeast 148 170 4,300 720 Climbing Indianapolis Center
04:05PM 39.3439 -84.1756 31° Northeast 142 163 4,700 780 Climbing Indianapolis Center
04:05PM 39.3572 -84.1592 44° Northeast 120 138 5,100 660 Climbing Indianapolis Center
04:06PM 39.3697 -84.1506 28° Northeast 129 148 5,400 540 Climbing Indianapolis Center
04:06PM 39.3803 -84.1417 33° Northeast 115 132 5,600 180 Climbing Indianapolis Center
04:07PM 39.4092 -84.1169 33° Northeast 141 162 5,600  Level Indianapolis Center
04:07PM 39.4183 -84.0994 56° Northeast 173 199 5,600  Level Indianapolis Center
04:08PM 39.4419 -84.0747 39° Northeast 159 183 5,600  Level Indianapolis Center
04:08PM 39.4556 -84.0653 28° Northeast 168 193 5,600  Level Indianapolis Center
04:09PM 39.4803 -84.0447 33° Northeast 162 186 5,600  Level Indianapolis Center
04:09PM 39.4928 -84.0311 40° Northeast 167 192 5,600  Level Indianapolis Center
04:10PM 39.5275 -84.0019 33° Northeast 165 190 5,600  Level Indianapolis Center
04:11PM 39.5550 -83.9744 38° Northeast 165 190 5,600  Level Indianapolis Center
04:11PM 39.5656 -83.9597 47° Northeast 167 192 5,600  Level Indianapolis Center
04:12PM 39.5922 -83.9392 31° Northeast 166 191 5,600  Level Indianapolis Center
04:12PM 39.6050 -83.9256 39° Northeast 166 191 5,600  Level Indianapolis Center
04:13PM 39.6331 -83.8978 37° Northeast 162 186 5,600  Level Indianapolis Center
04:13PM 39.6367 -83.8972 North 165 190 5,600  Level Indianapolis Center
04:14PM 39.6739 -83.8642 34° Northeast 163 188 5,600  Level Indianapolis Center
04:14PM 39.6792 -83.8569 46° Northeast 165 190 5,600  Level Indianapolis Center
04:15PM 39.7100 -83.8286 35° Northeast 163 188 5,600  Level Indianapolis Center
04:15PM 39.7164 -83.8225 36° Northeast 162 186 5,600  Level Indianapolis Center
04:16PM 39.7472 -83.7942 35° Northeast 163 188 5,600  Level Indianapolis Center
04:16PM 39.7611 -83.7783 41° Northeast 167 192 5,600  Level Indianapolis Center
04:17PM 39.7847 -83.7592 32° Northeast 164 189 5,600  Level Indianapolis Center
04:18PM 39.8217 -83.7258 35° Northeast 163 188 5,600  Level Indianapolis Center
04:18PM 39.8325 -83.7172 31° Northeast 162 186 5,600  Level Indianapolis Center
04:19PM 39.8764 -83.6783 34° Northeast 163 188 5,600  Level Indianapolis Center
04:20PM 39.9033 -83.6517 37° Northeast 162 186 5,600  Level Indianapolis Center
04:21PM 39.9369 -83.6203 36° Northeast 162 186 5,600 -120 Level Indianapolis Center
04:21PM 39.9400 -83.6164 44° Northeast 162 186 5,500 -120 Descending Indianapolis Center
04:22PM 39.9761 -83.5817 36° Northeast 161 185 5,500  Level Indianapolis Center
04:22PM 39.9811 -83.5786 25° Northeast 162 186 5,500 -420 Level Indianapolis Center
04:23PM 40.0131 -83.5456 38° Northeast 163 188 5,100 -420 Descending Indianapolis Center
04:23PM 40.0183 -83.5411 33° Northeast 167 192 5,100 -600 Level Indianapolis Center
04:24PM 40.0511 -83.5097 36° Northeast 166 191 4,500 -660 Descending Indianapolis Center
04:24PM 40.0603 -83.5017 34° Northeast 165 190 4,400 -540 Descending Indianapolis Center
04:25PM 40.0922 -83.4769 31° Northeast 158 182 4,000 -360 Descending Indianapolis Center
04:25PM 40.0886 -83.4786 199° South 163 188 4,100 -300 Climbing Indianapolis Center
04:26PM 40.1347 -83.4442 30° Northeast 162 186 3,700 -420 Descending Indianapolis Center
04:28PM 40.1697 -83.4004 44° Northeast  Level FlightAware Approximate
04:35PM 40.2167 -83.3500 37° Northeast  Level FlightAware Approximate
04:36PM 40.2247 -83.3516 37° Northeast  Level Estimated